Terminal Aerodrome Forecast
Issued by NWS Sioux Falls, SD

Home | Current Version | Previous Version | Graphics & Text | Print | Product List | Glossary Off
Versions: 1 2 3 4 5 6 7 8 9 10 11 12 13 14 15 16 17 18 19 20

000
FTUS43 KFSD 250520
TAFHON
TAF
KHON 250520Z 2506/2606 17006KT P6SM SCT150
     FM251000 VRB04KT 3SM BR BKN025
     FM251300 04008KT 2SM BR OVC012
     FM251700 01013KT P6SM OVC015
     FM252200 36015KT 2SM -SN OVC007=

USA.gov is the U.S. government's official web portal to all federal, state and local government web resources and services.